Weather at Ash Fork Jay Hasbrook Airport [CLOSED]

Public forecast

Using degrees Fahrenheit for public forecast. Weather courtesy of forecast.io.

Closest aviation weather report (METAR) to Ash Fork Jay Hasbrook Airport

Closest report is H.A. Clark Memorial Field, 15.3 nm (28.3 km) ENE. Retrieved 2021/06/13 10:35 UTC (14 minutes ago):

KCMR 131035Z AUTO 17010KT 10SM CLR 09/M14 A3021 RMK AO2

Closest aviation forecast (TAF) to Ash Fork Jay Hasbrook Airport

Closest forecast is Prescott International Airport - Ernest A. Love Field, 33.4 nm (61.8 km) S. Retrieved 2021/06/13 06:30 UTC (4 hours ago):

TAF KPRC 130527Z 1306/1406 19009KT P6SM SKC FM131900 22013G23KT P6SM SKC FM140300 20006KT P6SM SKC